Moenave, Arizona
Current Conditions -  °F | °C
As of 1:54 AM on Thursday 27 Nov 2014 (Local Time) from KGCN Reporting Station
Clear Clear  
Wind Chill: 12°   Ceiling: Unl
Heat Index: 21°   Visibility: 7mi
Dew Point:   Wind: 7mph
Humidity: 57%   Direction: 50°NE
Pressure: 30.48"   Gusts: NA
Location:  35.9808°N, 111.359°W
Report Text: KGCN 270854Z 05006KT 7SM CLR M06/M13 A3048 RMK AO2 SLP296 T10611133 58003
Loading
Personal Weather Stations






























Interactive Weather Map New forecast layout! Learn more

10-Day Weather Forecast

Advertisements
Track Severe Weather on mobile